MSC Ingrid — HOHA — position and weather

sailwx.info

Track history (hours):
 
Tides and Currents Weather Stations Pressure Air Temp Water Temp Dewpoint Dewpoint Depression Visibility Wind Speed Wind Dir Waves Ship Positions

MSC Ingrid

Last reported at 2017-Jun-26 20:29 UTC. Time now 2017-Jun-26 20:54 UTC.
Position N 37°57' E 023°35'.

Length 294 m; draft 10.4 m.

Type: Ship (hazmat cat A). MMSI: 354505000.

Date/timePositionNaut miles runAvg speedWind from/ knotsBaromVisibWave heightAir tempDewpointWater temp
2017-Jun-26 20:29N 37°57' E 023°35'0 0.0
2017-Jun-26 19:59N 37°57' E 023°35'0 0.0
2017-Jun-26 19:29N 37°57' E 023°35'0 0.0
2017-Jun-26 18:59N 37°57' E 023°35'0 0.0
2017-Jun-26 18:29N 37°57' E 023°35'0 0.0
2017-Jun-26 17:59N 37°57' E 023°35'0 0.0
2017-Jun-26 17:29N 37°57' E 023°35'0 0.0
2017-Jun-26 16:59N 37°57' E 023°35'0 0.0
2017-Jun-26 16:29N 37°57' E 023°35'0 0.0
2017-Jun-26 15:59N 37°57' E 023°35'0 0.0
2017-Jun-26 15:29N 37°57' E 023°35'0 0.0
2017-Jun-26 14:59N 37°57' E 023°35'0 0.0
2017-Jun-26 14:30N 37°57' E 023°35'3 2.5
2017-Jun-26 13:30N 37°55' E 023°36'1 1.2
2017-Jun-26 13:00N 37°54' E 023°36'0 0.4
2017-Jun-26 12:30N 37°54' E 023°36'0 0.4
2017-Jun-26 12:00N 37°54' E 023°37'0 0.5
2017-Jun-26 11:30N 37°54' E 023°37'0 0.8
2017-Jun-26 11:00N 37°54' E 023°37'2 5.0
2017-Jun-26 10:30N 37°52' E 023°39'4 8.4
2017-Jun-26 10:00N 37°48' E 023°41'5 9.9
2017-Jun-26 09:30N 37°43' E 023°44'5 9.6
2017-Jun-26 09:00N 37°39' E 023°45'510.1
2017-Jun-26 08:30N 37°34' E 023°44'511.0
2017-Jun-26 08:00N 37°28' E 023°42'714.1
2017-Jun-26 07:30N 37°21' E 023°40'815.8
2017-Jun-26 07:00N 37°14' E 023°38'815.3
2017-Jun-26 06:30N 37°06' E 023°36'815.3
2017-Jun-26 06:00N 36°59' E 023°33'815.5
2017-Jun-26 05:30N 36°52' E 023°30'17212.5
2017-Jun-25 15:44N 36°55' E 019°55'4716.2
2017-Jun-25 12:51N 37°08' E 018°59'515.6
2017-Jun-25 12:30N 37°10' E 018°52'815.5
2017-Jun-25 12:00N 37°12' E 018°43'815.6
2017-Jun-25 11:30N 37°15' E 018°34'815.6
2017-Jun-25 11:00N 37°16' E 018°24'815.6
2017-Jun-25 10:30N 37°18' E 018°15'815.7
2017-Jun-25 10:00N 37°20' E 018°05'815.8
2017-Jun-25 09:30N 37°23' E 017°56'815.8
2017-Jun-25 09:00N 37°25' E 017°46'816.0
2017-Jun-25 08:30N 37°27' E 017°37'816.0
2017-Jun-25 08:00N 37°29' E 017°27'815.9
2017-Jun-25 07:30N 37°31' E 017°17'816.0
2017-Jun-25 07:00N 37°34' E 017°08'815.9
2017-Jun-25 06:30N 37°36' E 016°58'815.7
2017-Jun-25 06:00N 37°38' E 016°48'815.4
2017-Jun-25 05:29N 37°40' E 016°39'815.4
2017-Jun-25 05:00N 37°42' E 016°30'816.4
2017-Jun-25 04:30N 37°45' E 016°20'816.6
2017-Jun-25 04:00N 37°47' E 016°10'1317.9
2017-Jun-25 03:16N 37°51' E 015°54'717.9
2017-Jun-25 02:54N 37°53' E 015°46'917.0
2017-Jun-25 02:24N 37°56' E 015°36'718.2
2017-Jun-25 02:00N 38°03' E 015°35'917.2
2017-Jun-25 01:30N 38°11' E 015°36'814.8
2017-Jun-25 00:58N 38°18' E 015°41'3 6.9
2017-Jun-25 00:30N 38°21' E 015°44'611.0
2017-Jun-24 23:58N 38°25' E 015°49'4 8.7
2017-Jun-24 23:28N 38°27' E 015°54'1 2.1
2017-Jun-24 23:00N 38°28' E 015°55'0 0.0
2017-Jun-24 22:30N 38°28' E 015°55'0 0.0
2017-Jun-24 21:05N 38°28' E 015°55'0 0.0
2017-Jun-24 20:59N 38°28' E 015°55'0 0.0
2017-Jun-24 20:29N 38°28' E 015°55'0 0.0
2017-Jun-24 19:59N 38°28' E 015°55'0 0.0
2017-Jun-24 19:29N 38°28' E 015°55'0 0.0
2017-Jun-24 18:59N 38°28' E 015°55'0 0.0
2017-Jun-24 18:29N 38°28' E 015°55'0 0.0
2017-Jun-24 17:59N 38°28' E 015°55'0 0.0
2017-Jun-24 17:29N 38°28' E 015°55'0 0.0
2017-Jun-24 16:59N 38°28' E 015°55'0 0.0
2017-Jun-24 16:29N 38°28' E 015°55'0 0.0
2017-Jun-24 15:59N 38°28' E 015°55'0 0.0
2017-Jun-24 15:29N 38°28' E 015°55'0 0.0
2017-Jun-24 14:59N 38°28' E 015°55'0 0.0
2017-Jun-24 13:59N 38°28' E 015°55'0 0.0
2017-Jun-24 13:29N 38°28' E 015°55'0 0.0
2017-Jun-24 12:59N 38°28' E 015°55'0 0.0
2017-Jun-24 12:28N 38°28' E 015°55'0 0.0
2017-Jun-24 11:58N 38°28' E 015°55'0 0.0
2017-Jun-24 11:28N 38°28' E 015°55'0 0.0
2017-Jun-24 10:58N 38°28' E 015°55'0 0.0
2017-Jun-24 10:28N 38°28' E 015°55'0 0.0
2017-Jun-24 09:58N 38°28' E 015°55'0 0.9
2017-Jun-24 09:30N 38°27' E 015°54'2 3.6
2017-Jun-24 09:00N 38°27' E 015°52'1 2.9
2017-Jun-24 08:30N 38°27' E 015°50'5 9.9
2017-Jun-24 08:00N 38°26' E 015°44'816.2
2017-Jun-24 07:30N 38°25' E 015°34'918.7
2017-Jun-24 07:00N 38°23' E 015°22'1019.0
2017-Jun-24 06:30N 38°21' E 015°10'918.4
2017-Jun-24 06:00N 38°19' E 014°59'1019.2
2017-Jun-24 05:30N 38°20' E 014°47'1019.2
2017-Jun-24 05:00N 38°21' E 014°34'1019.3
2017-Jun-24 04:30N 38°21' E 014°22'1119.3
2017-Jun-24 03:55N 38°22' E 014°08'819.1
2017-Jun-24 03:30N 38°23' E 013°58'1019.2
2017-Jun-24 03:00N 38°24' E 013°45'1019.1
2017-Jun-24 02:30N 38°24' E 013°33'918.9
2017-Jun-24 02:00N 38°25' E 013°21'918.8
2017-Jun-24 01:30N 38°25' E 013°09'1019.1
2017-Jun-24 01:00N 38°26' E 012°57'1019.2
2017-Jun-24 00:30N 38°26' E 012°45'918.9
2017-Jun-24 00:00N 38°27' E 012°33'918.9
2017-Jun-23 23:30N 38°28' E 012°21'3819.0
2017-Jun-23 21:29N 38°25' E 011°32'3319.8
2017-Jun-23 19:51N 38°19' E 010°52'820.0
2017-Jun-23 19:28N 38°17' E 010°42'919.8
2017-Jun-23 19:00N 38°15' E 010°30'1019.8
2017-Jun-23 18:30N 38°13' E 010°18'1019.7
2017-Jun-23 18:00N 38°11' E 010°06'1019.7
2017-Jun-23 17:29N 38°09' E 009°53'1019.8
2017-Jun-23 16:59N 38°07' E 009°41'1019.9
2017-Jun-23 16:30N 38°05' E 009°29'1019.6
2017-Jun-23 16:00N 38°03' E 009°17'1019.5
2017-Jun-23 15:30N 38°01' E 009°05'1019.7
2017-Jun-23 15:00N 37°59' E 008°52'2620.3
2017-Jun-23 13:42N 37°54' E 008°20'1420.2
2017-Jun-23 13:01N 37°51' E 008°03'220.1
2017-Jun-23 12:56N 37°50' E 008°00'920.1
2017-Jun-23 12:30N 37°49' E 007°50'1020.1
2017-Jun-23 11:59N 37°47' E 007°37'7517.9
2017-Jun-23 07:48N 37°34' E 006°04'619.2
2017-Jun-23 07:29N 37°33' E 005°56'1119.2
2017-Jun-23 06:56N 37°31' E 005°43'1019.4
2017-Jun-23 06:24N 37°29' E 005°30'2119.5
2017-Jun-23 05:20N 37°25' E 005°05'6219.6
2017-Jun-23 02:11N 37°14' E 003°48'419.8
2017-Jun-23 02:00N 37°14' E 003°44'1019.9
2017-Jun-23 01:30N 37°12' E 003°31'1019.7
2017-Jun-23 01:00N 37°10' E 003°19'1019.6
2017-Jun-23 00:30N 37°08' E 003°07'1019.7
2017-Jun-23 00:00N 37°07' E 002°55'1019.8
2017-Jun-22 23:30N 37°05' E 002°43'1019.9
2017-Jun-22 23:00N 37°03' E 002°31'1019.8
2017-Jun-22 22:30N 37°01' E 002°18'1019.6
2017-Jun-22 22:00N 36°59' E 002°06'1019.4
2017-Jun-22 21:30N 36°58' E 001°54'1019.2
2017-Jun-22 21:00N 36°56' E 001°43'1019.3
2017-Jun-22 20:30N 36°54' E 001°31'1019.2
2017-Jun-22 20:00N 36°53' E 001°19'1019.4
2017-Jun-22 19:30N 36°51' E 001°07'1019.6
2017-Jun-22 19:00N 36°49' E 000°55'1019.5
2017-Jun-22 18:30N 36°47' E 000°43'1019.6
2017-Jun-22 18:00N 36°46' E 000°31'1019.7
2017-Jun-22 17:30N 36°44' E 000°19'1019.9
2017-Jun-22 17:00N 36°42' E 000°07'1019.8
2017-Jun-22 16:30N 36°40' W 000°06'1019.4
2017-Jun-22 16:00N 36°39' W 000°18'1019.8
2017-Jun-22 15:30N 36°38' W 000°30'1019.7
2017-Jun-22 15:00N 36°36' W 000°42'1019.5
2017-Jun-22 14:30N 36°34' W 000°54'1919.4
2017-Jun-22 13:30N 36°30' W 001°17'1020.1
2017-Jun-22 13:00N 36°29' W 001°30'1019.8
2017-Jun-22 12:30N 36°27' W 001°42'1019.4
2017-Jun-22 12:00N 36°26' W 001°54'1619.5
2017-Jun-22 11:11N 36°21' W 002°13'420.7
2017-Jun-22 11:00N 36°20' W 002°18'13619.2
2017-Jun-22 03:55N 36°00' W 005°04'819.9
2017-Jun-22 03:30N 35°59' W 005°14'1020.1
2017-Jun-22 03:00N 35°58' W 005°26'917.9
2017-Jun-22 02:30N 35°55' W 005°37'1018.1
2017-Jun-22 01:59N 35°55' W 005°49'817.0
2017-Jun-22 01:30N 35°54' W 005°58'6019.0
2017-Jun-21 22:21N 36°06' W 007°11'719.6
2017-Jun-21 22:00N 36°08' W 007°19'1019.6
2017-Jun-21 21:30N 36°11' W 007°31'1119.9
2017-Jun-21 20:58N 36°14' W 007°44'1020.0
2017-Jun-21 20:30N 36°16' W 007°55'3920.3
2017-Jun-21 18:34N 36°25' W 008°43'420.7
2017-Jun-21 18:23N 36°26' W 008°47'820.9
2017-Jun-21 18:00N 36°28' W 008°57'1021.0
2017-Jun-21 17:30N 36°31' W 009°09'1020.7
2017-Jun-21 17:00N 36°36' W 009°20'1520.7
2017-Jun-21 16:17N 36°47' W 009°33'6920.2
2017-Jun-21 12:51N 37°54' W 009°54'718.5
2017-Jun-21 12:28N 38°01' W 009°56'918.5
2017-Jun-21 12:00N 38°09' W 009°58'918.4
2017-Jun-21 11:30N 38°19' W 010°01'918.2
2017-Jun-21 11:00N 38°27' W 010°02'918.6
2017-Jun-21 10:30N 38°37' W 010°05'918.1
2017-Jun-21 10:00N 38°46' W 010°07'917.9
2017-Jun-21 09:30N 38°54' W 010°07'917.5
2017-Jun-21 09:00N 39°03' W 010°06'917.7
2017-Jun-21 08:30N 39°12' W 010°06'918.3
2017-Jun-21 08:00N 39°21' W 010°06'5418.1
2017-Jun-21 05:02N 40°15' W 010°06'118.5
2017-Jun-21 05:00N 40°16' W 010°06'26317.5
2017-Jun-20 13:55N 44°35' W 009°07'817.9
2017-Jun-20 13:30N 44°42' W 009°02'917.3
2017-Jun-20 13:00N 44°50' W 008°57'3717.9
2017-Jun-20 10:55N 45°23' W 008°32'22918.4
2017-Jun-19 22:30N 48°45' W 005°55'917.3
2017-Jun-19 22:00N 48°53' W 005°48'917.1
2017-Jun-19 21:30N 48°58' W 005°38'917.7
2017-Jun-19 21:00N 49°02' W 005°26'1017.9
2017-Jun-19 20:28N 49°07' W 005°14'818.3
2017-Jun-19 20:00N 49°11' W 005°02'3118.8
2017-Jun-19 18:21N 49°27' W 004°21'718.9
2017-Jun-19 18:00N 49°30' W 004°12'1019.0
2017-Jun-19 17:29N 49°35' W 003°59'919.8
2017-Jun-19 17:00N 49°40' W 003°47'1019.6
2017-Jun-19 16:30N 49°45' W 003°34'1019.1
2017-Jun-19 16:00N 49°49' W 003°21'918.8
2017-Jun-19 15:30N 49°54' W 003°08'918.3
2017-Jun-19 15:00N 49°58' W 002°55'918.8
2017-Jun-19 14:30N 50°00' W 002°41'1919.0
2017-Jun-19 13:30N 50°04' W 002°12'1118.9
2017-Jun-19 12:56N 50°08' W 001°57'2120.5
2017-Jun-19 11:54N 50°14' W 001°25'921.6
2017-Jun-19 11:30N 50°16' W 001°12'1122.4
2017-Jun-19 11:00N 50°19' W 000°55'1121.8
2017-Jun-19 10:30N 50°22' W 000°38'1020.1
2017-Jun-19 10:00N 50°25' W 000°23'1020.6
2017-Jun-19 09:30N 50°28' W 000°08'1020.3
2017-Jun-19 09:00N 50°31' E 000°07'1020.1
2017-Jun-19 08:30N 50°33' E 000°23'1019.5
2017-Jun-19 08:00N 50°37' E 000°37'1019.2
2017-Jun-19 07:30N 50°43' E 000°49'918.5
2017-Jun-19 07:00N 50°49' E 000°60'917.9
2017-Jun-19 06:30N 50°55' E 001°11'917.5
2017-Jun-19 06:00N 51°01' E 001°21'917.9
2017-Jun-19 05:30N 51°06' E 001°32'918.3
2017-Jun-19 05:00N 51°12' E 001°43'1019.2
2017-Jun-19 04:30N 51°20' E 001°53'815.8
2017-Jun-19 04:00N 51°24' E 002°03'815.0
2017-Jun-19 03:30N 51°20' E 002°14'815.3
2017-Jun-19 03:00N 51°22' E 002°26'816.0
2017-Jun-19 02:30N 51°23' E 002°38'713.4
2017-Jun-19 02:01N 51°25' E 002°49'816.3
2017-Jun-19 01:31N 51°25' E 003°02'816.9
2017-Jun-19 01:00N 51°25' E 003°15'917.4
2017-Jun-19 00:30N 51°25' E 003°29'612.0
2017-Jun-19 00:00N 51°26' E 003°39'612.2
2017-Jun-18 23:30N 51°22' E 003°45'815.3
2017-Jun-18 23:00N 51°24' E 003°57'4 7.5
2017-Jun-18 22:31N 51°23' E 004°03'612.3
2017-Jun-18 22:00N 51°23' E 004°13'510.7
2017-Jun-18 21:31N 51°18' E 004°16'1 2.4
2017-Jun-18 20:59N 51°17' E 004°15'0 0.0
2017-Jun-18 20:29N 51°17' E 004°15'0 0.0
2017-Jun-18 19:59N 51°17' E 004°15'0 0.0
2017-Jun-18 19:29N 51°17' E 004°15'0 0.0
2017-Jun-18 18:59N 51°17' E 004°15'0 0.0
2017-Jun-18 18:29N 51°17' E 004°15'0 0.0
2017-Jun-18 17:59N 51°17' E 004°15'0 0.0
2017-Jun-18 17:29N 51°17' E 004°15'0 0.0
2017-Jun-18 16:59N 51°17' E 004°15'0 0.0
2017-Jun-18 16:29N 51°17' E 004°15'0 0.0
2017-Jun-18 15:59N 51°17' E 004°15'0 0.0
2017-Jun-18 15:23N 51°17' E 004°15'0 0.0
2017-Jun-18 14:59N 51°17' E 004°15'0 0.0
2017-Jun-18 13:59N 51°17' E 004°15'0 0.0
2017-Jun-18 13:29N 51°17' E 004°15'0 0.0
2017-Jun-18 12:56N 51°17' E 004°15'0 0.0
2017-Jun-18 12:29N 51°17' E 004°15'0 0.1
2017-Jun-18 11:59N 51°17' E 004°15'0 0.1
2017-Jun-18 11:29N 51°17' E 004°15'0 0.0
2017-Jun-18 10:59N 51°17' E 004°15'0 0.0
2017-Jun-18 10:29N 51°17' E 004°15'0 0.0
2017-Jun-18 09:59N 51°17' E 004°15'0 0.0
2017-Jun-18 09:29N 51°17' E 004°15'0 0.0
2017-Jun-18 08:59N 51°17' E 004°15'0 0.0
2017-Jun-18 08:29N 51°17' E 004°15'0 0.0
2017-Jun-18 07:59N 51°17' E 004°15'0 0.0
2017-Jun-18 07:29N 51°17' E 004°15'0 0.0
2017-Jun-18 06:59N 51°17' E 004°15'0 0.0
2017-Jun-18 06:29N 51°17' E 004°15'0 0.0
2017-Jun-18 05:59N 51°17' E 004°15'0 0.0
2017-Jun-18 05:29N 51°17' E 004°15'0 0.0
2017-Jun-18 04:59N 51°17' E 004°15'0 0.0
2017-Jun-18 04:29N 51°17' E 004°15'0 0.0
2017-Jun-18 03:59N 51°17' E 004°15'0 0.1
2017-Jun-18 03:29N 51°17' E 004°15'0 0.1
2017-Jun-18 02:59N 51°17' E 004°15'0 0.0
2017-Jun-18 02:29N 51°17' E 004°15'0 0.0
2017-Jun-18 01:59N 51°17' E 004°15'0 0.0
2017-Jun-18 01:29N 51°17' E 004°15'0 0.0
2017-Jun-18 00:59N 51°17' E 004°15'0 0.1
2017-Jun-18 00:29N 51°17' E 004°15'0 0.0
2017-Jun-17 23:59N 51°17' E 004°15'0 0.0
2017-Jun-17 23:29N 51°17' E 004°15'0 0.0
2017-Jun-17 22:59N 51°17' E 004°15'0 0.0
2017-Jun-17 22:29N 51°17' E 004°15'0 0.0
2017-Jun-17 21:59N 51°17' E 004°15'0 0.0
2017-Jun-17 21:28N 51°17' E 004°15'0 0.0
2017-Jun-17 20:58N 51°17' E 004°15'0 0.0
2017-Jun-17 20:28N 51°17' E 004°15'0 0.0
2017-Jun-17 19:58N 51°17' E 004°15'0 0.0
2017-Jun-17 19:28N 51°17' E 004°15'0 0.0
2017-Jun-17 18:58N 51°17' E 004°15'0 0.0
2017-Jun-17 18:28N 51°17' E 004°15'0 0.0
2017-Jun-17 17:58N 51°17' E 004°15'0 0.0
2017-Jun-17 17:28N 51°17' E 004°15'0 0.0
2017-Jun-17 16:58N 51°17' E 004°15'0 0.1
2017-Jun-17 16:28N 51°17' E 004°15'0 0.0
2017-Jun-17 15:58N 51°17' E 004°15'0 0.0
2017-Jun-17 15:31N 51°17' E 004°15'0 0.8
2017-Jun-17 15:01N 51°18' E 004°16'2 3.2
2017-Jun-17 14:31N 51°19' E 004°16'8 8.1
2017-Jun-17 13:30N 51°22' E 004°04'5 9.9
2017-Jun-17 13:00N 51°26' E 003°59'611.7
2017-Jun-17 12:30N 51°21' E 003°53'510.6
2017-Jun-17 12:00N 51°22' E 003°45'611.8
2017-Jun-17 11:30N 51°26' E 003°39'5 9.7
2017-Jun-17 11:00N 51°25' E 003°31'713.2
2017-Jun-17 10:31N 51°24' E 003°21'714.8
2017-Jun-17 10:00N 51°24' E 003°09'612.9
2017-Jun-17 09:30N 51°27' E 002°60'815.7
2017-Jun-17 09:00N 51°34' E 003°08'713.8
2017-Jun-17 08:30N 51°40' E 003°12'611.1
2017-Jun-17 08:00N 51°45' E 003°14'3 5.6
2017-Jun-17 07:30N 51°48' E 003°16'2 4.5
2017-Jun-17 07:00N 51°48' E 003°20'0 0.1
2017-Jun-17 06:30N 51°48' E 003°20'0 0.0
2017-Jun-17 06:00N 51°48' E 003°20'0 0.0
2017-Jun-17 05:30N 51°48' E 003°20'0 0.2
2017-Jun-17 05:00N 51°48' E 003°20'0 0.2
2017-Jun-17 04:25N 51°48' E 003°20'0 0.0
2017-Jun-17 04:00N 51°48' E 003°20'0 0.2
2017-Jun-17 03:30N 51°48' E 003°20'0 0.1
2017-Jun-17 03:00N 51°48' E 003°20'0 0.0
2017-Jun-17 02:30N 51°48' E 003°20'0 0.0
2017-Jun-17 02:00N 51°48' E 003°20'0 0.0
2017-Jun-17 01:30N 51°48' E 003°20'0 0.0
2017-Jun-17 01:00N 51°48' E 003°20'0 0.0
2017-Jun-17 00:30N 51°48' E 003°20'0 0.0
2017-Jun-17 00:00N 51°48' E 003°20'0 0.2
2017-Jun-16 23:30N 51°48' E 003°20'0 0.2
2017-Jun-16 23:00N 51°48' E 003°20'0 0.1
2017-Jun-16 22:30N 51°48' E 003°20'0 0.0
2017-Jun-16 22:00N 51°48' E 003°20'0 0.1
2017-Jun-16 21:30N 51°48' E 003°20'1 1.9
2017-Jun-16 21:00N 51°48' E 003°18'510.0
2017-Jun-16 20:30N 51°53' E 003°19'  
Track history (hours):
 
Tides and Currents Weather Stations Pressure Air Temp Water Temp Dewpoint Dewpoint Depression Visibility Wind Speed Wind Dir Waves Ship Positions

MSC Ingrid

Last reported at 2017-Jun-26 20:29 UTC. Time now 2017-Jun-26 20:54 UTC.
Position N 37°57' E 023°35'.

Length 294 m; draft 10.4 m.

Type: Ship (hazmat cat A). MMSI: 354505000.

Date/timePositionNaut miles runAvg speedWind from/ knotsBaromVisibWave heightAir tempDewpointWater temp
2017-Jun-26 20:29N 37°57' E 023°35'0 0.0
2017-Jun-26 19:59N 37°57' E 023°35'0 0.0
2017-Jun-26 19:29N 37°57' E 023°35'0 0.0
2017-Jun-26 18:59N 37°57' E 023°35'0 0.0
2017-Jun-26 18:29N 37°57' E 023°35'0 0.0
2017-Jun-26 17:59N 37°57' E 023°35'0 0.0
2017-Jun-26 17:29N 37°57' E 023°35'0 0.0
2017-Jun-26 16:59N 37°57' E 023°35'0 0.0
2017-Jun-26 16:29N 37°57' E 023°35'0 0.0
2017-Jun-26 15:59N 37°57' E 023°35'0 0.0
2017-Jun-26 15:29N 37°57' E 023°35'0 0.0
2017-Jun-26 14:59N 37°57' E 023°35'0 0.0
2017-Jun-26 14:30N 37°57' E 023°35'3 2.5
2017-Jun-26 13:30N 37°55' E 023°36'1 1.2
2017-Jun-26 13:00N 37°54' E 023°36'0 0.4
2017-Jun-26 12:30N 37°54' E 023°36'0 0.4
2017-Jun-26 12:00N 37°54' E 023°37'0 0.5
2017-Jun-26 11:30N 37°54' E 023°37'0 0.8
2017-Jun-26 11:00N 37°54' E 023°37'2 5.0
2017-Jun-26 10:30N 37°52' E 023°39'4 8.4
2017-Jun-26 10:00N 37°48' E 023°41'5 9.9
2017-Jun-26 09:30N 37°43' E 023°44'5 9.6
2017-Jun-26 09:00N 37°39' E 023°45'510.1
2017-Jun-26 08:30N 37°34' E 023°44'511.0
2017-Jun-26 08:00N 37°28' E 023°42'714.1
2017-Jun-26 07:30N 37°21' E 023°40'815.8
2017-Jun-26 07:00N 37°14' E 023°38'815.3
2017-Jun-26 06:30N 37°06' E 023°36'815.3
2017-Jun-26 06:00N 36°59' E 023°33'815.5
2017-Jun-26 05:30N 36°52' E 023°30'17212.5
2017-Jun-25 15:44N 36°55' E 019°55'4716.2
2017-Jun-25 12:51N 37°08' E 018°59'515.6
2017-Jun-25 12:30N 37°10' E 018°52'815.5
2017-Jun-25 12:00N 37°12' E 018°43'815.6
2017-Jun-25 11:30N 37°15' E 018°34'815.6
2017-Jun-25 11:00N 37°16' E 018°24'815.6
2017-Jun-25 10:30N 37°18' E 018°15'815.7
2017-Jun-25 10:00N 37°20' E 018°05'815.8
2017-Jun-25 09:30N 37°23' E 017°56'815.8
2017-Jun-25 09:00N 37°25' E 017°46'816.0
2017-Jun-25 08:30N 37°27' E 017°37'816.0
2017-Jun-25 08:00N 37°29' E 017°27'815.9
2017-Jun-25 07:30N 37°31' E 017°17'816.0
2017-Jun-25 07:00N 37°34' E 017°08'815.9
2017-Jun-25 06:30N 37°36' E 016°58'815.7
2017-Jun-25 06:00N 37°38' E 016°48'815.4
2017-Jun-25 05:29N 37°40' E 016°39'815.4
2017-Jun-25 05:00N 37°42' E 016°30'816.4
2017-Jun-25 04:30N 37°45' E 016°20'816.6
2017-Jun-25 04:00N 37°47' E 016°10'1317.9
2017-Jun-25 03:16N 37°51' E 015°54'717.9
2017-Jun-25 02:54N 37°53' E 015°46'917.0
2017-Jun-25 02:24N 37°56' E 015°36'718.2
2017-Jun-25 02:00N 38°03' E 015°35'917.2
2017-Jun-25 01:30N 38°11' E 015°36'814.8
2017-Jun-25 00:58N 38°18' E 015°41'3 6.9
2017-Jun-25 00:30N 38°21' E 015°44'611.0
2017-Jun-24 23:58N 38°25' E 015°49'4 8.7
2017-Jun-24 23:28N 38°27' E 015°54'1 2.1
2017-Jun-24 23:00N 38°28' E 015°55'0 0.0
2017-Jun-24 22:30N 38°28' E 015°55'0 0.0
2017-Jun-24 21:05N 38°28' E 015°55'0 0.0
2017-Jun-24 20:59N 38°28' E 015°55'0 0.0
2017-Jun-24 20:29N 38°28' E 015°55'0 0.0
2017-Jun-24 19:59N 38°28' E 015°55'0 0.0
2017-Jun-24 19:29N 38°28' E 015°55'0 0.0
2017-Jun-24 18:59N 38°28' E 015°55'0 0.0
2017-Jun-24 18:29N 38°28' E 015°55'0 0.0
2017-Jun-24 17:59N 38°28' E 015°55'0 0.0
2017-Jun-24 17:29N 38°28' E 015°55'0 0.0
2017-Jun-24 16:59N 38°28' E 015°55'0 0.0
2017-Jun-24 16:29N 38°28' E 015°55'0 0.0
2017-Jun-24 15:59N 38°28' E 015°55'0 0.0
2017-Jun-24 15:29N 38°28' E 015°55'0 0.0
2017-Jun-24 14:59N 38°28' E 015°55'0 0.0
2017-Jun-24 13:59N 38°28' E 015°55'0 0.0
2017-Jun-24 13:29N 38°28' E 015°55'0 0.0
2017-Jun-24 12:59N 38°28' E 015°55'0 0.0
2017-Jun-24 12:28N 38°28' E 015°55'0 0.0
2017-Jun-24 11:58N 38°28' E 015°55'0 0.0
2017-Jun-24 11:28N 38°28' E 015°55'0 0.0
2017-Jun-24 10:58N 38°28' E 015°55'0 0.0
2017-Jun-24 10:28N 38°28' E 015°55'0 0.0
2017-Jun-24 09:58N 38°28' E 015°55'0 0.9
2017-Jun-24 09:30N 38°27' E 015°54'2 3.6
2017-Jun-24 09:00N 38°27' E 015°52'1 2.9
2017-Jun-24 08:30N 38°27' E 015°50'5 9.9
2017-Jun-24 08:00N 38°26' E 015°44'816.2
2017-Jun-24 07:30N 38°25' E 015°34'918.7
2017-Jun-24 07:00N 38°23' E 015°22'1019.0
2017-Jun-24 06:30N 38°21' E 015°10'918.4
2017-Jun-24 06:00N 38°19' E 014°59'1019.2
2017-Jun-24 05:30N 38°20' E 014°47'1019.2
2017-Jun-24 05:00N 38°21' E 014°34'1019.3
2017-Jun-24 04:30N 38°21' E 014°22'1119.3
2017-Jun-24 03:55N 38°22' E 014°08'819.1
2017-Jun-24 03:30N 38°23' E 013°58'1019.2
2017-Jun-24 03:00N 38°24' E 013°45'1019.1
2017-Jun-24 02:30N 38°24' E 013°33'918.9
2017-Jun-24 02:00N 38°25' E 013°21'918.8
2017-Jun-24 01:30N 38°25' E 013°09'1019.1
2017-Jun-24 01:00N 38°26' E 012°57'1019.2
2017-Jun-24 00:30N 38°26' E 012°45'918.9
2017-Jun-24 00:00N 38°27' E 012°33'918.9
2017-Jun-23 23:30N 38°28' E 012°21'3819.0
2017-Jun-23 21:29N 38°25' E 011°32'3319.8
2017-Jun-23 19:51N 38°19' E 010°52'820.0
2017-Jun-23 19:28N 38°17' E 010°42'919.8
2017-Jun-23 19:00N 38°15' E 010°30'1019.8
2017-Jun-23 18:30N 38°13' E 010°18'1019.7
2017-Jun-23 18:00N 38°11' E 010°06'1019.7
2017-Jun-23 17:29N 38°09' E 009°53'1019.8
2017-Jun-23 16:59N 38°07' E 009°41'1019.9
2017-Jun-23 16:30N 38°05' E 009°29'1019.6
2017-Jun-23 16:00N 38°03' E 009°17'1019.5
2017-Jun-23 15:30N 38°01' E 009°05'1019.7
2017-Jun-23 15:00N 37°59' E 008°52'2620.3
2017-Jun-23 13:42N 37°54' E 008°20'1420.2
2017-Jun-23 13:01N 37°51' E 008°03'220.1
2017-Jun-23 12:56N 37°50' E 008°00'920.1
2017-Jun-23 12:30N 37°49' E 007°50'1020.1
2017-Jun-23 11:59N 37°47' E 007°37'7517.9
2017-Jun-23 07:48N 37°34' E 006°04'619.2
2017-Jun-23 07:29N 37°33' E 005°56'1119.2
2017-Jun-23 06:56N 37°31' E 005°43'1019.4
2017-Jun-23 06:24N 37°29' E 005°30'2119.5
2017-Jun-23 05:20N 37°25' E 005°05'6219.6
2017-Jun-23 02:11N 37°14' E 003°48'419.8
2017-Jun-23 02:00N 37°14' E 003°44'1019.9
2017-Jun-23 01:30N 37°12' E 003°31'1019.7
2017-Jun-23 01:00N 37°10' E 003°19'1019.6
2017-Jun-23 00:30N 37°08' E 003°07'1019.7
2017-Jun-23 00:00N 37°07' E 002°55'1019.8
2017-Jun-22 23:30N 37°05' E 002°43'1019.9
2017-Jun-22 23:00N 37°03' E 002°31'1019.8
2017-Jun-22 22:30N 37°01' E 002°18'1019.6
2017-Jun-22 22:00N 36°59' E 002°06'1019.4
2017-Jun-22 21:30N 36°58' E 001°54'1019.2
2017-Jun-22 21:00N 36°56' E 001°43'1019.3
2017-Jun-22 20:30N 36°54' E 001°31'1019.2
2017-Jun-22 20:00N 36°53' E 001°19'1019.4
2017-Jun-22 19:30N 36°51' E 001°07'1019.6
2017-Jun-22 19:00N 36°49' E 000°55'1019.5
2017-Jun-22 18:30N 36°47' E 000°43'1019.6
2017-Jun-22 18:00N 36°46' E 000°31'1019.7
2017-Jun-22 17:30N 36°44' E 000°19'1019.9
2017-Jun-22 17:00N 36°42' E 000°07'1019.8
2017-Jun-22 16:30N 36°40' W 000°06'1019.4
2017-Jun-22 16:00N 36°39' W 000°18'1019.8
2017-Jun-22 15:30N 36°38' W 000°30'1019.7
2017-Jun-22 15:00N 36°36' W 000°42'1019.5
2017-Jun-22 14:30N 36°34' W 000°54'1919.4
2017-Jun-22 13:30N 36°30' W 001°17'1020.1
2017-Jun-22 13:00N 36°29' W 001°30'1019.8
2017-Jun-22 12:30N 36°27' W 001°42'1019.4
2017-Jun-22 12:00N 36°26' W 001°54'1619.5
2017-Jun-22 11:11N 36°21' W 002°13'420.7
2017-Jun-22 11:00N 36°20' W 002°18'13619.2
2017-Jun-22 03:55N 36°00' W 005°04'819.9
2017-Jun-22 03:30N 35°59' W 005°14'1020.1
2017-Jun-22 03:00N 35°58' W 005°26'917.9
2017-Jun-22 02:30N 35°55' W 005°37'1018.1
2017-Jun-22 01:59N 35°55' W 005°49'817.0
2017-Jun-22 01:30N 35°54' W 005°58'6019.0
2017-Jun-21 22:21N 36°06' W 007°11'719.6
2017-Jun-21 22:00N 36°08' W 007°19'1019.6
2017-Jun-21 21:30N 36°11' W 007°31'1119.9
2017-Jun-21 20:58N 36°14' W 007°44'1020.0
2017-Jun-21 20:30N 36°16' W 007°55'3920.3
2017-Jun-21 18:34N 36°25' W 008°43'420.7
2017-Jun-21 18:23N 36°26' W 008°47'820.9
2017-Jun-21 18:00N 36°28' W 008°57'1021.0
2017-Jun-21 17:30N 36°31' W 009°09'1020.7
2017-Jun-21 17:00N 36°36' W 009°20'1520.7
2017-Jun-21 16:17N 36°47' W 009°33'6920.2
2017-Jun-21 12:51N 37°54' W 009°54'718.5
2017-Jun-21 12:28N 38°01' W 009°56'918.5
2017-Jun-21 12:00N 38°09' W 009°58'918.4
2017-Jun-21 11:30N 38°19' W 010°01'918.2
2017-Jun-21 11:00N 38°27' W 010°02'918.6
2017-Jun-21 10:30N 38°37' W 010°05'918.1
2017-Jun-21 10:00N 38°46' W 010°07'917.9
2017-Jun-21 09:30N 38°54' W 010°07'917.5
2017-Jun-21 09:00N 39°03' W 010°06'917.7
2017-Jun-21 08:30N 39°12' W 010°06'918.3
2017-Jun-21 08:00N 39°21' W 010°06'5418.1
2017-Jun-21 05:02N 40°15' W 010°06'118.5
2017-Jun-21 05:00N 40°16' W 010°06'26317.5
2017-Jun-20 13:55N 44°35' W 009°07'817.9
2017-Jun-20 13:30N 44°42' W 009°02'917.3
2017-Jun-20 13:00N 44°50' W 008°57'3717.9
2017-Jun-20 10:55N 45°23' W 008°32'22918.4
2017-Jun-19 22:30N 48°45' W 005°55'917.3
2017-Jun-19 22:00N 48°53' W 005°48'917.1
2017-Jun-19 21:30N 48°58' W 005°38'917.7
2017-Jun-19 21:00N 49°02' W 005°26'1017.9
2017-Jun-19 20:28N 49°07' W 005°14'818.3
2017-Jun-19 20:00N 49°11' W 005°02'3118.8
2017-Jun-19 18:21N 49°27' W 004°21'718.9
2017-Jun-19 18:00N 49°30' W 004°12'1019.0
2017-Jun-19 17:29N 49°35' W 003°59'919.8
2017-Jun-19 17:00N 49°40' W 003°47'1019.6
2017-Jun-19 16:30N 49°45' W 003°34'1019.1
2017-Jun-19 16:00N 49°49' W 003°21'918.8
2017-Jun-19 15:30N 49°54' W 003°08'918.3
2017-Jun-19 15:00N 49°58' W 002°55'918.8
2017-Jun-19 14:30N 50°00' W 002°41'1919.0
2017-Jun-19 13:30N 50°04' W 002°12'1118.9
2017-Jun-19 12:56N 50°08' W 001°57'2120.5
2017-Jun-19 11:54N 50°14' W 001°25'921.6
2017-Jun-19 11:30N 50°16' W 001°12'1122.4
2017-Jun-19 11:00N 50°19' W 000°55'1121.8
2017-Jun-19 10:30N 50°22' W 000°38'1020.1
2017-Jun-19 10:00N 50°25' W 000°23'1020.6
2017-Jun-19 09:30N 50°28' W 000°08'1020.3
2017-Jun-19 09:00N 50°31' E 000°07'1020.1
2017-Jun-19 08:30N 50°33' E 000°23'1019.5
2017-Jun-19 08:00N 50°37' E 000°37'1019.2
2017-Jun-19 07:30N 50°43' E 000°49'918.5
2017-Jun-19 07:00N 50°49' E 000°60'917.9
2017-Jun-19 06:30N 50°55' E 001°11'917.5
2017-Jun-19 06:00N 51°01' E 001°21'917.9
2017-Jun-19 05:30N 51°06' E 001°32'918.3
2017-Jun-19 05:00N 51°12' E 001°43'1019.2
2017-Jun-19 04:30N 51°20' E 001°53'815.8
2017-Jun-19 04:00N 51°24' E 002°03'815.0
2017-Jun-19 03:30N 51°20' E 002°14'815.3
2017-Jun-19 03:00N 51°22' E 002°26'816.0
2017-Jun-19 02:30N 51°23' E 002°38'713.4
2017-Jun-19 02:01N 51°25' E 002°49'816.3
2017-Jun-19 01:31N 51°25' E 003°02'816.9
2017-Jun-19 01:00N 51°25' E 003°15'917.4
2017-Jun-19 00:30N 51°25' E 003°29'612.0
2017-Jun-19 00:00N 51°26' E 003°39'612.2
2017-Jun-18 23:30N 51°22' E 003°45'815.3
2017-Jun-18 23:00N 51°24' E 003°57'4 7.5
2017-Jun-18 22:31N 51°23' E 004°03'612.3
2017-Jun-18 22:00N 51°23' E 004°13'510.7
2017-Jun-18 21:31N 51°18' E 004°16'1 2.4
2017-Jun-18 20:59N 51°17' E 004°15'0 0.0
2017-Jun-18 20:29N 51°17' E 004°15'0 0.0
2017-Jun-18 19:59N 51°17' E 004°15'0 0.0
2017-Jun-18 19:29N 51°17' E 004°15'0 0.0
2017-Jun-18 18:59N 51°17' E 004°15'0 0.0
2017-Jun-18 18:29N 51°17' E 004°15'0 0.0
2017-Jun-18 17:59N 51°17' E 004°15'0 0.0
2017-Jun-18 17:29N 51°17' E 004°15'0 0.0
2017-Jun-18 16:59N 51°17' E 004°15'0 0.0
2017-Jun-18 16:29N 51°17' E 004°15'0 0.0
2017-Jun-18 15:59N 51°17' E 004°15'0 0.0
2017-Jun-18 15:23N 51°17' E 004°15'0 0.0
2017-Jun-18 14:59N 51°17' E 004°15'0 0.0
2017-Jun-18 13:59N 51°17' E 004°15'0 0.0
2017-Jun-18 13:29N 51°17' E 004°15'0 0.0
2017-Jun-18 12:56N 51°17' E 004°15'0 0.0
2017-Jun-18 12:29N 51°17' E 004°15'0 0.1
2017-Jun-18 11:59N 51°17' E 004°15'0 0.1
2017-Jun-18 11:29N 51°17' E 004°15'0 0.0
2017-Jun-18 10:59N 51°17' E 004°15'0 0.0
2017-Jun-18 10:29N 51°17' E 004°15'0 0.0
2017-Jun-18 09:59N 51°17' E 004°15'0 0.0
2017-Jun-18 09:29N 51°17' E 004°15'0 0.0
2017-Jun-18 08:59N 51°17' E 004°15'0 0.0
2017-Jun-18 08:29N 51°17' E 004°15'0 0.0
2017-Jun-18 07:59N 51°17' E 004°15'0 0.0
2017-Jun-18 07:29N 51°17' E 004°15'0 0.0
2017-Jun-18 06:59N 51°17' E 004°15'0 0.0
2017-Jun-18 06:29N 51°17' E 004°15'0 0.0
2017-Jun-18 05:59N 51°17' E 004°15'0 0.0
2017-Jun-18 05:29N 51°17' E 004°15'0 0.0
2017-Jun-18 04:59N 51°17' E 004°15'0 0.0
2017-Jun-18 04:29N 51°17' E 004°15'0 0.0
2017-Jun-18 03:59N 51°17' E 004°15'0 0.1
2017-Jun-18 03:29N 51°17' E 004°15'0 0.1
2017-Jun-18 02:59N 51°17' E 004°15'0 0.0
2017-Jun-18 02:29N 51°17' E 004°15'0 0.0
2017-Jun-18 01:59N 51°17' E 004°15'0 0.0
2017-Jun-18 01:29N 51°17' E 004°15'0 0.0
2017-Jun-18 00:59N 51°17' E 004°15'0 0.1
2017-Jun-18 00:29N 51°17' E 004°15'0 0.0
2017-Jun-17 23:59N 51°17' E 004°15'0 0.0
2017-Jun-17 23:29N 51°17' E 004°15'0 0.0
2017-Jun-17 22:59N 51°17' E 004°15'0 0.0
2017-Jun-17 22:29N 51°17' E 004°15'0 0.0
2017-Jun-17 21:59N 51°17' E 004°15'0 0.0
2017-Jun-17 21:28N 51°17' E 004°15'0 0.0
2017-Jun-17 20:58N 51°17' E 004°15'0 0.0
2017-Jun-17 20:28N 51°17' E 004°15'0 0.0
2017-Jun-17 19:58N 51°17' E 004°15'0 0.0
2017-Jun-17 19:28N 51°17' E 004°15'0 0.0
2017-Jun-17 18:58N 51°17' E 004°15'0 0.0
2017-Jun-17 18:28N 51°17' E 004°15'0 0.0
2017-Jun-17 17:58N 51°17' E 004°15'0 0.0
2017-Jun-17 17:28N 51°17' E 004°15'0 0.0
2017-Jun-17 16:58N 51°17' E 004°15'0 0.1
2017-Jun-17 16:28N 51°17' E 004°15'0 0.0
2017-Jun-17 15:58N 51°17' E 004°15'0 0.0
2017-Jun-17 15:31N 51°17' E 004°15'0 0.8
2017-Jun-17 15:01N 51°18' E 004°16'2 3.2
2017-Jun-17 14:31N 51°19' E 004°16'8 8.1
2017-Jun-17 13:30N 51°22' E 004°04'5 9.9
2017-Jun-17 13:00N 51°26' E 003°59'611.7
2017-Jun-17 12:30N 51°21' E 003°53'510.6
2017-Jun-17 12:00N 51°22' E 003°45'611.8
2017-Jun-17 11:30N 51°26' E 003°39'5 9.7
2017-Jun-17 11:00N 51°25' E 003°31'713.2
2017-Jun-17 10:31N 51°24' E 003°21'714.8
2017-Jun-17 10:00N 51°24' E 003°09'612.9
2017-Jun-17 09:30N 51°27' E 002°60'815.7
2017-Jun-17 09:00N 51°34' E 003°08'713.8
2017-Jun-17 08:30N 51°40' E 003°12'611.1
2017-Jun-17 08:00N 51°45' E 003°14'3 5.6
2017-Jun-17 07:30N 51°48' E 003°16'2 4.5
2017-Jun-17 07:00N 51°48' E 003°20'0 0.1
2017-Jun-17 06:30N 51°48' E 003°20'0 0.0
2017-Jun-17 06:00N 51°48' E 003°20'0 0.0
2017-Jun-17 05:30N 51°48' E 003°20'0 0.2
2017-Jun-17 05:00N 51°48' E 003°20'0 0.2
2017-Jun-17 04:25N 51°48' E 003°20'0 0.0
2017-Jun-17 04:00N 51°48' E 003°20'0 0.2
2017-Jun-17 03:30N 51°48' E 003°20'0 0.1
2017-Jun-17 03:00N 51°48' E 003°20'0 0.0
2017-Jun-17 02:30N 51°48' E 003°20'0 0.0
2017-Jun-17 02:00N 51°48' E 003°20'0 0.0
2017-Jun-17 01:30N 51°48' E 003°20'0 0.0
2017-Jun-17 01:00N 51°48' E 003°20'0 0.0
2017-Jun-17 00:30N 51°48' E 003°20'0 0.0
2017-Jun-17 00:00N 51°48' E 003°20'0 0.2
2017-Jun-16 23:30N 51°48' E 003°20'0 0.2
2017-Jun-16 23:00N 51°48' E 003°20'0 0.1
2017-Jun-16 22:30N 51°48' E 003°20'0 0.0
2017-Jun-16 22:00N 51°48' E 003°20'0 0.1
2017-Jun-16 21:30N 51°48' E 003°20'1 1.9
2017-Jun-16 21:00N 51°48' E 003°18'510.0
2017-Jun-16 20:30N 51°53' E 003°19'  

Dump ship's entire track history